Time;durP1;ratioP1;P1;durP2;ratioP2;P2;SDS_P1;SDS_P2;PMS_P1;PMS_P2;Temp;Humidity;BMP_temperature;BMP_pressure;BME280_temperature;BME280_humidity;BME280_pressure;Samples;Min_cycle;Max_cycle;Signal;HPM_P1;HPM_P2
2023/09/05 00:02:19;;;;;;;3.87;3.47;;;21.10;1.00;;;;;;5117432;28;20459;-60
2023/09/05 00:04:47;;;;;;;4.80;2.90;;;21.20;1.00;;;;;;5117654;28;20483;-61
2023/09/05 00:07:16;;;;;;;3.97;2.90;;;21.10;99.90;;;;;;5117482;28;20761;-61
2023/09/05 00:09:46;;;;;;;5.23;2.67;;;21.20;99.90;;;;;;5117459;28;20459;-61
2023/09/05 00:12:13;;;;;;;3.50;3.20;;;21.20;99.90;;;;;;5117786;28;20465;-60
2023/09/05 00:14:40;;;;;;;3.27;2.97;;;21.20;99.90;;;;;;5119135;28;20455;-60
2023/09/05 00:17:09;;;;;;;5.10;3.20;;;21.10;1.00;;;;;;5121870;28;20755;-61
2023/09/05 00:19:36;;;;;;;3.50;3.20;;;21.10;1.00;;;;;;5121299;28;20455;-60
2023/09/05 00:22:04;;;;;;;4.30;2.70;;;21.10;79.90;;;;;;5121830;28;20459;-60
2023/09/05 00:24:33;;;;;;;3.27;2.97;;;21.10;58.60;;;;;;5121118;28;20480;-60
2023/09/05 00:27:03;;;;;;;3.07;2.77;;;21.10;99.90;;;;;;5121452;28;20966;-61
2023/09/05 00:29:31;;;;;;;2.60;2.40;;;21.10;1.00;;;;;;5121525;27;20491;-60
2023/09/05 00:31:59;;;;;;;3.70;3.00;;;21.10;99.90;;;;;;5121507;28;20455;-61
2023/09/05 00:34:28;;;;;;;3.37;3.07;;;21.00;1.00;;;;;;5121123;28;20971;-60
2023/09/05 00:36:55;;;;;;;3.80;3.30;;;21.10;99.90;;;;;;5121122;28;20479;-60
2023/09/05 00:39:22;;;;;;;3.30;3.00;;;21.10;99.90;;;;;;5121193;28;20550;-62
2023/09/05 00:41:49;;;;;;;4.80;3.70;;;21.00;7.90;;;;;;5121320;28;20465;-60
2023/09/05 00:44:18;;;;;;;3.87;3.57;;;21.00;1.00;;;;;;5121283;28;20751;-60
2023/09/05 00:46:47;;;;;;;3.67;3.13;;;21.10;1.00;;;;;;5121041;28;20491;-62
2023/09/05 00:49:16;;;;;;;3.30;3.00;;;21.10;1.00;;;;;;5120979;28;20455;-62
2023/09/05 00:51:45;;;;;;;4.50;3.47;;;21.10;1.00;;;;;;5121138;28;20495;-61
2023/09/05 00:54:13;;;;;;;3.53;3.23;;;21.00;1.00;;;;;;5121437;28;20515;-61
2023/09/05 00:56:41;;;;;;;4.83;2.90;;;21.00;1.00;;;;;;5120896;28;20550;-61
2023/09/05 00:59:09;;;;;;;3.30;3.00;;;21.00;1.00;;;;;;5121325;28;20490;-61
2023/09/05 01:01:38;;;;;;;4.37;2.93;;;20.90;1.00;;;;;;5120399;28;20824;-62
2023/09/05 01:04:05;;;;;;;3.63;3.33;;;21.00;99.90;;;;;;5121058;28;20462;-60
2023/09/05 01:06:46;;;;;;;3.97;3.00;;;21.00;1.00;;;;;;5119799;28;20561;-62
2023/09/05 01:09:22;;;;;;;3.57;3.20;;;21.00;1.00;;;;;;5120773;28;20463;-61
2023/09/05 01:11:49;;;;;;;4.50;3.10;;;21.00;99.90;;;;;;5121080;28;20545;-61
2023/09/05 01:14:17;;;;;;;3.80;2.77;;;20.90;99.90;;;;;;5120813;28;20546;-61
2023/09/05 01:16:46;;;;;;;5.00;3.20;;;20.90;1.00;;;;;;5120491;28;20542;-60
2023/09/05 01:19:16;;;;;;;3.60;3.30;;;20.90;99.90;;;;;;5120597;28;20486;-60
2023/09/05 01:21:56;;;;;;;3.37;3.07;;;20.90;99.90;;;;;;5120145;28;20540;-61
2023/09/05 01:24:25;;;;;;;3.33;2.93;;;20.80;1.00;;;;;;5120044;28;20462;-61
2023/09/05 01:26:53;;;;;;;3.67;3.03;;;20.80;1.00;;;;;;5119638;28;20546;-60
2023/09/05 01:29:30;;;;;;;3.33;3.03;;;20.80;99.90;;;;;;5120636;28;20913;-61
2023/09/05 01:31:59;;;;;;;4.40;3.10;;;20.80;99.90;;;;;;5120723;28;20958;-60
2023/09/05 01:34:26;;;;;;;3.00;2.70;;;20.70;99.90;;;;;;5120084;28;20763;-61
2023/09/05 01:36:53;;;;;;;3.20;2.90;;;20.80;99.90;;;;;;5119732;28;20479;-61
2023/09/05 01:39:21;;;;;;;5.43;3.13;;;20.80;99.90;;;;;;5120057;28;20462;-61
2023/09/05 01:41:50;;;;;;;2.87;2.60;;;20.90;99.90;;;;;;5120117;28;20455;-60
2023/09/05 01:44:18;;;;;;;4.20;3.07;;;20.70;99.90;;;;;;5120487;27;20505;-61
2023/09/05 01:46:45;;;;;;;3.70;2.77;;;20.70;99.90;;;;;;5119717;28;20480;-60
2023/09/05 01:49:13;;;;;;;4.40;2.93;;;20.70;99.90;;;;;;5119833;27;20463;-62
2023/09/05 01:51:40;;;;;;;3.57;3.27;;;20.70;99.90;;;;;;5119537;28;20509;-61
2023/09/05 01:54:08;;;;;;;6.10;3.00;;;20.70;99.90;;;;;;5120016;28;20579;-61
2023/09/05 01:56:35;;;;;;;3.17;2.87;;;20.70;99.90;;;;;;5120060;28;20755;-60
2023/09/05 01:59:05;;;;;;;3.57;2.90;;;20.70;1.00;;;;;;5119409;27;20458;-60
2023/09/05 02:01:34;;;;;;;3.13;2.83;;;20.70;99.90;;;;;;5119972;28;20888;-61
2023/09/05 02:04:01;;;;;;;3.70;3.07;;;20.70;99.90;;;;;;5119741;28;20502;-61
2023/09/05 02:06:28;;;;;;;7.50;3.13;;;20.70;99.90;;;;;;5119521;28;20868;-60
2023/09/05 02:08:56;;;;;;;3.73;3.37;;;20.60;99.90;;;;;;5119544;28;20752;-60
2023/09/05 02:11:23;;;;;;;5.60;3.47;;;20.60;1.00;;;;;;5119460;28;20456;-60
2023/09/05 02:13:50;;;;;;;3.40;2.83;;;20.60;1.00;;;;;;5119592;28;20554;-61
2023/09/05 02:16:19;;;;;;;3.40;3.10;;;20.70;1.00;;;;;;5119908;28;20546;-61
2023/09/05 02:18:49;;;;;;;3.40;2.90;;;20.70;15.00;;;;;;5119392;28;20455;-61
2023/09/05 02:21:16;;;;;;;3.70;3.30;;;20.60;75.60;;;;;;5119473;28;20559;-60
2023/09/05 02:23:44;;;;;;;5.00;3.20;;;20.60;1.00;;;;;;5119390;28;20554;-61
2023/09/05 02:26:12;;;;;;;4.73;2.70;;;20.60;99.90;;;;;;5119269;28;20808;-61
2023/09/05 02:28:40;;;;;;;4.27;2.80;;;20.60;1.00;;;;;;5119032;28;20450;-60
2023/09/05 02:31:08;;;;;;;3.63;3.07;;;20.60;1.00;;;;;;5118964;28;20451;-61
2023/09/05 02:33:37;;;;;;;3.77;3.23;;;20.60;99.90;;;;;;5118680;28;20458;-61
2023/09/05 02:36:10;;;;;;;2.90;2.50;;;20.60;99.90;;;;;;5119037;28;20483;-61
2023/09/05 02:38:37;;;;;;;3.27;2.97;;;20.50;99.90;;;;;;5117761;28;20764;-60
2023/09/05 02:41:05;;;;;;;3.30;3.00;;;20.50;30.00;;;;;;5118735;28;20458;-61
2023/09/05 02:43:34;;;;;;;3.73;2.83;;;20.40;1.00;;;;;;5118604;28;20455;-61
2023/09/05 02:46:01;;;;;;;4.03;2.83;;;20.50;1.00;;;;;;5119225;28;20758;-60
2023/09/05 02:48:28;;;;;;;3.33;3.03;;;20.50;99.90;;;;;;5118836;28;20874;-60
2023/09/05 02:51:05;;;;;;;4.47;3.20;;;20.40;1.00;;;;;;5118684;28;20459;-61
2023/09/05 02:53:33;;;;;;;4.43;2.73;;;20.40;99.90;;;;;;5118775;28;20888;-62
2023/09/05 02:55:59;;;;;;;5.30;3.03;;;20.30;99.90;;;;;;5118783;28;20459;-60
2023/09/05 02:58:28;;;;;;;3.80;2.90;;;20.30;9.60;;;;;;5118754;28;20889;-61
2023/09/05 03:01:06;;;;;;;3.13;2.50;;;20.30;35.10;;;;;;5118836;28;20754;-61
2023/09/05 03:03:33;;;;;;;2.73;2.30;;;20.30;1.00;;;;;;5118815;28;20487;-61
2023/09/05 03:06:10;;;;;;;3.80;2.80;;;20.30;1.00;;;;;;5118517;28;20460;-62
2023/09/05 03:08:38;;;;;;;3.80;2.70;;;20.30;1.00;;;;;;5118016;28;20491;-60
2023/09/05 03:11:05;;;;;;;3.40;2.97;;;20.30;1.00;;;;;;5118463;28;20460;-61
2023/09/05 03:13:33;;;;;;;3.60;2.87;;;20.20;1.00;;;;;;5118273;28;20461;-60
2023/09/05 03:16:00;;;;;;;3.47;3.17;;;20.20;85.70;;;;;;5118323;28;20758;-60
2023/09/05 03:18:27;;;;;;;4.03;3.57;;;20.20;1.00;;;;;;5117803;28;20746;-61
2023/09/05 03:20:54;;;;;;;5.20;2.90;;;20.20;46.30;;;;;;5118258;28;20551;-61
2023/09/05 03:23:23;;;;;;;3.10;2.80;;;20.10;96.40;;;;;;5117816;28;20466;-61
2023/09/05 03:25:51;;;;;;;5.33;2.70;;;20.10;1.00;;;;;;5118220;28;20462;-61
2023/09/05 03:28:18;;;;;;;3.00;2.67;;;20.10;81.00;;;;;;5117550;28;20560;-59
2023/09/05 03:30:45;;;;;;;5.13;2.70;;;20.20;20.60;;;;;;5117971;28;20466;-60
2023/09/05 03:33:12;;;;;;;4.50;3.20;;;20.20;41.30;;;;;;5117845;28;20466;-61
2023/09/05 03:35:40;;;;;;;3.30;3.00;;;20.20;1.00;;;;;;5117764;28;20455;-61
2023/09/05 03:38:07;;;;;;;3.53;3.10;;;20.20;94.80;;;;;;5117916;28;20489;-61
2023/09/05 03:40:36;;;;;;;4.50;3.17;;;20.10;99.90;;;;;;5117538;28;20497;-61
2023/09/05 03:43:04;;;;;;;2.77;2.57;;;20.20;1.00;;;;;;5117372;28;20456;-61
2023/09/05 03:45:31;;;;;;;3.57;3.27;;;20.10;42.30;;;;;;5117862;28;20537;-61
2023/09/05 03:47:59;;;;;;;4.10;3.17;;;20.10;17.70;;;;;;5117763;28;20487;-60
2023/09/05 03:50:26;;;;;;;3.17;2.87;;;20.10;1.00;;;;;;5117326;28;20876;-61
2023/09/05 03:52:53;;;;;;;2.93;2.63;;;20.10;1.00;;;;;;5117029;28;20430;-61
2023/09/05 03:55:20;;;;;;;6.03;2.70;;;20.10;1.00;;;;;;5117623;28;20463;-61
2023/09/05 03:57:49;;;;;;;3.70;3.40;;;20.00;1.00;;;;;;5117747;28;20459;-60
2023/09/05 04:00:16;;;;;;;3.00;2.70;;;20.00;1.00;;;;;;5117861;28;20460;-61
2023/09/05 04:02:44;;;;;;;3.57;2.80;;;19.90;1.00;;;;;;5117589;28;20813;-61
2023/09/05 04:05:11;;;;;;;3.90;3.03;;;20.00;1.00;;;;;;5112656;28;20907;-60
2023/09/05 04:07:38;;;;;;;3.30;3.00;;;19.90;1.00;;;;;;5097217;28;20941;-60
2023/09/05 04:10:06;;;;;;;3.30;3.00;;;19.90;5.70;;;;;;5097521;28;20460;-60
2023/09/05 04:12:34;;;;;;;4.23;2.97;;;19.80;99.90;;;;;;5097048;28;20563;-60
2023/09/05 04:15:02;;;;;;;4.30;3.00;;;19.80;21.40;;;;;;5096917;28;20492;-60
2023/09/05 04:17:29;;;;;;;3.83;2.97;;;19.80;1.00;;;;;;5096623;28;20982;-60
2023/09/05 04:19:56;;;;;;;3.80;2.57;;;19.70;1.00;;;;;;5097159;28;20457;-61
2023/09/05 04:22:26;;;;;;;3.53;3.10;;;19.60;1.00;;;;;;5096937;28;20460;-61
2023/09/05 04:24:54;;;;;;;3.13;2.80;;;19.50;1.00;;;;;;5096651;28;20823;-60
2023/09/05 04:27:23;;;;;;;3.07;2.60;;;19.40;1.00;;;;;;5096263;28;20476;-60
2023/09/05 04:29:54;;;;;;;3.80;3.10;;;19.30;1.00;;;;;;5097019;28;20465;-60
2023/09/05 04:32:27;;;;;;;4.20;3.00;;;19.20;99.90;;;;;;5096507;28;20463;-60
2023/09/05 04:34:55;;;;;;;3.30;3.00;;;19.20;1.00;;;;;;5076594;28;20890;-60
2023/09/05 04:37:22;;;;;;;3.93;2.93;;;19.10;1.00;;;;;;5090912;28;20457;-60
2023/09/05 04:39:50;;;;;;;3.47;3.17;;;19.00;1.00;;;;;;5096996;28;20462;-60
2023/09/05 04:42:17;;;;;;;3.33;3.03;;;19.10;1.00;;;;;;5097260;28;20506;-61
2023/09/05 04:44:44;;;;;;;5.33;3.60;;;19.00;1.00;;;;;;5096718;28;20498;-60
2023/09/05 04:47:20;;;;;;;3.10;2.57;;;19.10;1.00;;;;;;5096778;28;20484;-60
2023/09/05 04:49:49;;;;;;;6.00;3.83;;;19.10;1.00;;;;;;5096701;28;20548;-60
2023/09/05 04:52:18;;;;;;;3.93;3.10;;;19.00;1.00;;;;;;5097132;28;20479;-60
2023/09/05 04:54:45;;;;;;;4.57;3.43;;;19.00;1.00;;;;;;5095607;28;20451;-61
2023/09/05 04:57:13;;;;;;;3.23;2.93;;;18.90;1.00;;;;;;5101628;28;20546;-59
2023/09/05 04:59:40;;;;;;;4.60;3.37;;;19.00;1.00;;;;;;5127450;28;20442;-60
2023/09/05 05:02:08;;;;;;;3.60;3.30;;;19.00;1.00;;;;;;5135005;27;20425;-60
2023/09/05 05:04:35;;;;;;;4.23;3.90;;;19.10;1.00;;;;;;5124139;27;20452;-59
2023/09/05 05:07:03;;;;;;;7.97;3.30;;;19.10;1.00;;;;;;5127021;27;20487;-60
2023/09/05 05:09:31;;;;;;;3.93;3.10;;;19.00;1.00;;;;;;5124152;27;20439;-61
2023/09/05 05:11:59;;;;;;;3.77;3.37;;;19.10;1.00;;;;;;5125539;27;20490;-60
2023/09/05 05:14:26;;;;;;;3.80;3.50;;;19.00;1.00;;;;;;5126693;27;20449;-59
2023/09/05 05:16:53;;;;;;;4.50;3.63;;;19.00;1.00;;;;;;5128538;27;20447;-60
2023/09/05 05:19:21;;;;;;;3.17;2.87;;;18.80;1.00;;;;;;5127743;27;20852;-60
2023/09/05 05:21:48;;;;;;;3.80;3.37;;;18.80;1.00;;;;;;5123628;27;20454;-60
2023/09/05 05:24:16;;;;;;;4.27;3.83;;;18.80;8.70;;;;;;5137942;27;20530;-60
2023/09/05 05:26:44;;;;;;;4.17;3.60;;;18.70;99.90;;;;;;5139195;27;20451;-59
2023/09/05 05:29:12;;;;;;;4.10;3.70;;;18.60;99.90;;;;;;5135833;27;21021;-60
2023/09/05 05:31:40;;;;;;;4.77;3.37;;;18.50;99.90;;;;;;5130631;27;20473;-60
2023/09/05 05:34:07;;;;;;;3.70;3.30;;;18.60;99.90;;;;;;5122747;27;20451;-58
2023/09/05 05:36:35;;;;;;;6.67;3.20;;;18.60;99.90;;;;;;5112115;28;20515;-58
2023/09/05 05:39:03;;;;;;;4.83;3.87;;;18.60;99.90;;;;;;5099156;28;20452;-58
2023/09/05 05:41:34;;;;;;;4.37;3.17;;;18.50;99.90;;;;;;5099151;28;20969;-58
2023/09/05 05:44:01;;;;;;;5.03;3.97;;;18.60;99.90;;;;;;5098694;28;20881;-58
2023/09/05 05:46:30;;;;;;;4.30;3.33;;;18.60;99.90;;;;;;5098472;28;20453;-59
2023/09/05 05:48:58;;;;;;;4.50;3.53;;;18.70;99.90;;;;;;5098727;28;20526;-57
2023/09/05 05:51:26;;;;;;;3.83;3.07;;;18.80;99.90;;;;;;5099385;28;20517;-58
2023/09/05 05:53:54;;;;;;;6.77;5.00;;;18.80;99.90;;;;;;5099543;28;20766;-58
2023/09/05 05:56:21;;;;;;;9.50;3.30;;;18.90;99.90;;;;;;5078694;28;20523;-58
2023/09/05 05:58:50;;;;;;;4.50;3.40;;;19.00;99.90;;;;;;5079063;28;20507;-58
2023/09/05 06:01:19;;;;;;;4.10;3.80;;;19.10;99.90;;;;;;5079205;28;20500;-58
2023/09/05 06:03:46;;;;;;;4.77;3.70;;;19.20;99.90;;;;;;5079116;28;20465;-57
2023/09/05 06:06:14;;;;;;;3.83;3.50;;;19.30;99.90;;;;;;5079404;28;20544;-58
2023/09/05 06:08:41;;;;;;;3.67;3.20;;;19.30;99.90;;;;;;5078783;28;20497;-59
2023/09/05 06:11:08;;;;;;;5.07;3.67;;;19.30;99.90;;;;;;5078576;28;20465;-59
2023/09/05 06:13:35;;;;;;;3.93;3.53;;;19.50;99.90;;;;;;5095309;28;20913;-58
2023/09/05 06:16:04;;;;;;;4.60;3.70;;;19.60;99.90;;;;;;5097092;28;20551;-58
2023/09/05 06:18:31;;;;;;;3.90;3.00;;;19.70;99.90;;;;;;5096915;28;20488;-58
2023/09/05 06:20:58;;;;;;;4.67;4.13;;;19.80;99.90;;;;;;5096995;28;20471;-60
2023/09/05 06:23:26;;;;;;;4.30;3.70;;;19.90;99.90;;;;;;5097035;28;20499;-58
2023/09/05 06:25:53;;;;;;;4.80;3.83;;;20.00;99.90;;;;;;5098065;28;20551;-58
2023/09/05 06:28:20;;;;;;;5.73;3.40;;;20.20;99.90;;;;;;5097867;28;20492;-58
2023/09/05 06:30:48;;;;;;;3.63;3.30;;;20.30;99.90;;;;;;5097009;28;20559;-57
2023/09/05 06:33:16;;;;;;;6.00;3.80;;;20.50;99.90;;;;;;5096963;28;20467;-57
2023/09/05 06:35:44;;;;;;;4.47;4.07;;;20.80;99.90;;;;;;5096853;28;20621;-58
2023/09/05 06:38:14;;;;;;;4.10;3.70;;;21.00;99.90;;;;;;5097053;28;20465;-59
2023/09/05 06:40:41;;;;;;;4.20;3.77;;;21.20;99.90;;;;;;5097821;28;20495;-57
2023/09/05 06:43:10;;;;;;;4.13;3.73;;;21.40;99.90;;;;;;5097363;28;20844;-58
2023/09/05 06:45:38;;;;;;;3.30;3.00;;;21.50;99.90;;;;;;5098459;28;20889;-58
2023/09/05 06:48:06;;;;;;;3.73;3.43;;;21.70;96.70;;;;;;5098408;28;20463;-58
2023/09/05 06:50:34;;;;;;;4.23;3.53;;;21.90;99.90;;;;;;5098254;28;20555;-57
2023/09/05 06:53:01;;;;;;;5.30;3.50;;;22.00;17.50;;;;;;5098277;28;20923;-58
2023/09/05 06:55:31;;;;;;;4.10;3.60;;;22.20;5.50;;;;;;5098345;28;20952;-57
2023/09/05 06:57:58;;;;;;;3.50;3.17;;;22.30;1.00;;;;;;5098240;28;20503;-58
2023/09/05 07:00:27;;;;;;;4.70;3.50;;;22.50;4.30;;;;;;5098047;28;20594;-58
2023/09/05 07:02:55;;;;;;;3.63;3.17;;;22.60;99.90;;;;;;5096762;28;20452;-58
2023/09/05 07:05:22;;;;;;;4.37;3.97;;;22.80;72.40;;;;;;5097500;28;20793;-58
2023/09/05 07:07:50;;;;;;;3.87;3.57;;;23.00;1.00;;;;;;5096836;28;20777;-58
2023/09/05 07:10:18;;;;;;;3.60;3.00;;;23.20;1.00;;;;;;5096213;28;20484;-56
2023/09/05 07:12:45;;;;;;;4.03;3.73;;;23.30;1.00;;;;;;5096423;28;20456;-59
2023/09/05 07:15:12;;;;;;;5.97;3.90;;;23.40;1.00;;;;;;5097018;28;20554;-59
2023/09/05 07:17:39;;;;;;;3.83;3.17;;;23.50;1.00;;;;;;5096985;28;20479;-59
2023/09/05 07:20:09;;;;;;;6.60;3.60;;;23.50;1.00;;;;;;5097506;28;20459;-59
2023/09/05 07:22:37;;;;;;;7.30;3.77;;;23.60;1.00;;;;;;5095289;28;20474;-60
2023/09/05 07:25:06;;;;;;;3.70;3.17;;;23.60;1.00;;;;;;5095486;28;20597;-58
2023/09/05 07:27:34;;;;;;;3.83;3.40;;;23.70;1.00;;;;;;5095990;28;20919;-59
2023/09/05 07:30:01;;;;;;;6.63;3.67;;;23.70;1.00;;;;;;5095942;28;20492;-57
2023/09/05 07:32:29;;;;;;;4.30;3.80;;;23.80;1.00;;;;;;5096011;28;20455;-59
2023/09/05 07:34:56;;;;;;;3.53;3.23;;;23.90;99.90;;;;;;5095780;28;20461;-59
2023/09/05 07:37:23;;;;;;;4.47;3.63;;;24.10;99.90;;;;;;5095613;28;20574;-59
2023/09/05 07:39:52;;;;;;;3.53;3.23;;;24.20;1.00;;;;;;5096027;28;20555;-59
2023/09/05 07:42:21;;;;;;;4.00;3.60;;;24.40;1.00;;;;;;5096059;28;20517;-58
2023/09/05 07:44:48;;;;;;;3.40;3.10;;;24.60;1.00;;;;;;5096378;28;20431;-59
2023/09/05 07:47:15;;;;;;;4.23;3.77;;;24.80;99.90;;;;;;5097144;28;20517;-59
2023/09/05 07:49:43;;;;;;;4.33;4.03;;;24.90;99.90;;;;;;5097255;28;20959;-58
2023/09/05 07:52:11;;;;;;;5.03;3.37;;;25.00;99.90;;;;;;5097524;28;20460;-58
2023/09/05 07:54:38;;;;;;;5.07;4.13;;;25.20;99.90;;;;;;5097189;28;20837;-58
2023/09/05 07:57:06;;;;;;;4.70;3.67;;;25.30;99.90;;;;;;5097244;28;20547;-59
2023/09/05 07:59:35;;;;;;;5.53;3.70;;;25.50;99.90;;;;;;5097342;28;20889;-58
2023/09/05 08:02:04;;;;;;;4.97;3.33;;;25.60;99.90;;;;;;5097292;28;20483;-58
2023/09/05 08:04:31;;;;;;;3.70;3.40;;;25.70;99.90;;;;;;5096244;28;20562;-59
2023/09/05 08:06:59;;;;;;;3.43;3.10;;;25.70;99.90;;;;;;5096674;28;20745;-59
2023/09/05 08:09:27;;;;;;;3.90;3.60;;;25.70;99.90;;;;;;5097183;28;20833;-59
2023/09/05 08:11:54;;;;;;;3.70;3.40;;;25.60;99.90;;;;;;5097262;28;20495;-59
2023/09/05 08:14:22;;;;;;;4.90;3.83;;;25.60;99.90;;;;;;5096774;28;20461;-58
2023/09/05 08:16:51;;;;;;;3.90;3.60;;;25.80;99.90;;;;;;5097324;28;20456;-58
2023/09/05 08:19:18;;;;;;;6.50;3.53;;;25.90;99.90;;;;;;5096136;28;20452;-57
2023/09/05 08:21:46;;;;;;;4.13;3.73;;;26.10;99.90;;;;;;5096968;28;20457;-59
2023/09/05 08:24:13;;;;;;;3.30;2.90;;;26.30;99.90;;;;;;5095509;28;20456;-58
2023/09/05 08:26:41;;;;;;;4.40;4.00;;;26.50;99.90;;;;;;5095825;28;20602;-57
2023/09/05 08:29:08;;;;;;;3.20;2.90;;;26.50;99.90;;;;;;5095769;28;20488;-59
2023/09/05 08:31:35;;;;;;;4.07;3.70;;;26.60;99.90;;;;;;5095288;28;20457;-59
2023/09/05 08:34:06;;;;;;;3.70;3.33;;;26.60;99.90;;;;;;5096487;28;20563;-58
2023/09/05 08:36:34;;;;;;;6.93;3.83;;;26.70;99.90;;;;;;5104883;28;20483;-59
2023/09/05 08:39:02;;;;;;;4.30;3.33;;;26.80;99.90;;;;;;5121142;28;20459;-58
2023/09/05 08:41:30;;;;;;;3.20;2.90;;;26.90;99.90;;;;;;5120759;28;20459;-59
2023/09/05 08:43:57;;;;;;;3.37;3.07;;;26.90;99.90;;;;;;5119706;28;20462;-60
2023/09/05 08:46:25;;;;;;;3.63;3.30;;;26.90;99.90;;;;;;5119767;28;20460;-61
2023/09/05 08:48:52;;;;;;;3.07;2.83;;;26.90;99.90;;;;;;5108238;28;20500;-61
2023/09/05 08:51:22;;;;;;;4.30;3.20;;;26.90;99.90;;;;;;5086254;28;20554;-61
2023/09/05 08:53:55;;;;;;;6.33;3.50;;;27.00;99.90;;;;;;5099730;28;20459;-60
2023/09/05 08:56:24;;;;;;;3.30;3.00;;;27.20;99.90;;;;;;5099746;28;20547;-61
2023/09/05 08:58:53;;;;;;;3.63;2.80;;;27.10;98.30;;;;;;5100470;28;20453;-60
2023/09/05 09:01:21;;;;;;;3.63;3.33;;;27.30;99.90;;;;;;5099898;28;20509;-60
2023/09/05 09:03:48;;;;;;;2.90;2.70;;;27.50;99.90;;;;;;5095631;28;20487;-61
2023/09/05 09:06:15;;;;;;;3.13;2.93;;;27.60;86.20;;;;;;5092842;28;20579;-60
2023/09/05 09:08:45;;;;;;;3.50;3.07;;;27.60;91.70;;;;;;5100169;28;20583;-61
2023/09/05 09:11:14;;;;;;;3.60;3.30;;;27.80;87.00;;;;;;5100265;28;20466;-60
2023/09/05 09:13:42;;;;;;;2.80;2.60;;;28.00;55.00;;;;;;5089584;28;20847;-59
2023/09/05 09:16:09;;;;;;;3.30;3.10;;;28.00;40.00;;;;;;5080549;28;20559;-60
2023/09/05 09:18:40;;;;;;;3.37;2.90;;;27.90;17.30;;;;;;5079757;28;20458;-60
2023/09/05 09:21:08;;;;;;;4.30;3.00;;;27.80;7.20;;;;;;5079701;28;20909;-62
2023/09/05 09:23:35;;;;;;;4.10;2.90;;;27.70;1.00;;;;;;5079797;28;20461;-61
2023/09/05 09:26:05;;;;;;;3.30;3.00;;;27.90;1.70;;;;;;5079885;28;20518;-61
2023/09/05 09:28:33;;;;;;;3.40;2.90;;;28.00;31.80;;;;;;5079294;28;20560;-62
2023/09/05 09:31:02;;;;;;;3.03;2.60;;;28.20;1.00;;;;;;5079910;28;20896;-61
2023/09/05 09:33:31;;;;;;;3.17;2.87;;;28.20;1.00;;;;;;5079661;28;20457;-62
2023/09/05 09:36:06;;;;;;;3.20;2.83;;;28.40;1.00;;;;;;5082352;28;20510;-59
2023/09/05 09:38:34;;;;;;;7.70;3.50;;;28.80;1.20;;;;;;5099489;28;20559;-61
2023/09/05 09:41:02;;;;;;;3.40;3.07;;;29.00;1.00;;;;;;5105175;28;20917;-60
2023/09/05 09:43:32;;;;;;;3.80;3.00;;;29.30;1.00;;;;;;5115325;28;20479;-61
2023/09/05 09:46:00;;;;;;;3.00;2.70;;;29.20;1.00;;;;;;5117675;28;20475;-61
2023/09/05 09:48:30;;;;;;;3.53;3.23;;;29.30;1.00;;;;;;5113212;28;20960;-61
2023/09/05 09:51:00;;;;;;;3.57;3.20;;;29.60;1.00;;;;;;5120047;28;20558;-62
2023/09/05 09:53:34;;;;;;;4.70;2.97;;;29.80;1.00;;;;;;5114669;28;20472;-60
2023/09/05 09:56:06;;;;;;;3.20;2.90;;;29.90;1.00;;;;;;5107565;28;20528;-60
2023/09/05 09:58:37;;;;;;;3.07;2.77;;;29.90;1.00;;;;;;5118896;28;20483;-60
2023/09/05 10:01:06;;;;;;;3.63;3.33;;;29.90;1.00;;;;;;5118981;28;20724;-60
2023/09/05 10:03:34;;;;;;;3.50;3.20;;;30.10;1.00;;;;;;5118824;28;20491;-61
2023/09/05 10:06:04;;;;;;;2.70;2.50;;;30.20;1.00;;;;;;5118515;28;20546;-61
2023/09/05 10:08:33;;;;;;;3.20;2.90;;;30.30;1.00;;;;;;5119060;28;20520;-59
2023/09/05 10:11:01;;;;;;;2.70;2.50;;;30.00;1.00;;;;;;5119781;28;20513;-60
2023/09/05 10:13:33;;;;;;;4.07;2.43;;;30.00;1.00;;;;;;5117686;28;20459;-59
2023/09/05 10:16:02;;;;;;;3.00;2.70;;;30.20;1.00;;;;;;5117941;28;20491;-62
2023/09/05 10:18:32;;;;;;;4.93;2.40;;;30.30;1.00;;;;;;5117725;28;20455;-58
2023/09/05 10:21:03;;;;;;;3.47;2.53;;;30.40;1.00;;;;;;5118825;28;20459;-61
2023/09/05 10:23:33;;;;;;;6.50;2.80;;;30.50;1.00;;;;;;5118917;28;20742;-59
2023/09/05 10:26:03;;;;;;;4.40;2.97;;;30.70;1.00;;;;;;5118356;28;20456;-61
2023/09/05 10:28:31;;;;;;;4.33;2.13;;;30.80;1.00;;;;;;5118106;28;20459;-60
2023/09/05 10:31:12;;;;;;;4.40;2.60;;;30.90;1.00;;;;;;5117656;28;20498;-61
2023/09/05 10:33:40;;;;;;;2.90;2.70;;;31.10;1.00;;;;;;5118074;28;20459;-60
2023/09/05 10:36:27;;;;;;;2.57;2.37;;;31.00;1.00;;;;;;5117053;28;20490;-60
2023/09/05 10:38:57;;;;;;;2.87;2.67;;;31.00;1.00;;;;;;5116776;28;20542;-60
2023/09/05 10:41:37;;;;;;;2.90;2.70;;;31.20;1.00;;;;;;5116646;28;20888;-60
2023/09/05 10:44:07;;;;;;;9.30;3.07;;;31.20;1.00;;;;;;5116985;28;20467;-61
2023/09/05 10:46:36;;;;;;;4.30;3.00;;;31.40;1.00;;;;;;5118309;28;20542;-62
2023/09/05 10:49:13;;;;;;;2.97;2.77;;;31.70;1.00;;;;;;5118600;28;20467;-62
2023/09/05 10:52:14;;;;;;;4.13;2.87;;;32.00;1.00;;;;;;5117701;28;20459;-62
2023/09/05 10:54:42;;;;;;;5.57;3.60;;;32.20;1.00;;;;;;5116954;28;20460;-62
2023/09/05 10:57:33;;;;;;;4.23;3.93;;;32.30;1.00;;;;;;5117661;28;20783;-62
2023/09/05 11:00:11;;;;;;;3.77;2.93;;;32.60;1.00;;;;;;5116296;28;20786;-61
2023/09/05 11:02:40;;;;;;;3.03;2.83;;;32.60;1.00;;;;;;5116878;28;20469;-59
2023/09/05 11:05:12;;;;;;;5.20;3.07;;;32.70;1.00;;;;;;5116346;28;20458;-60
2023/09/05 11:07:43;;;;;;;3.30;3.10;;;32.80;1.00;;;;;;5117166;28;20451;-60
2023/09/05 11:10:12;;;;;;;2.93;2.73;;;33.00;1.00;;;;;;5116897;28;20836;-59
2023/09/05 11:12:40;;;;;;;2.53;2.33;;;33.00;1.00;;;;;;5116776;28;20455;-59
2023/09/05 11:15:08;;;;;;;2.70;2.50;;;32.40;1.00;;;;;;5134317;27;20474;-58
2023/09/05 11:17:37;;;;;;;3.17;2.87;;;32.20;1.00;;;;;;5138810;27;20458;-59
2023/09/05 11:20:09;;;;;;;2.30;2.10;;;32.10;1.00;;;;;;5139152;27;20461;-58
2023/09/05 11:22:36;;;;;;;3.03;2.33;;;32.30;1.00;;;;;;5138707;27;20465;-59
2023/09/05 11:25:07;;;;;;;3.27;2.70;;;32.20;1.00;;;;;;5138089;27;20548;-59
2023/09/05 11:27:36;;;;;;;3.30;3.10;;;32.30;1.00;;;;;;5139193;27;20458;-59
2023/09/05 11:30:06;;;;;;;2.83;2.63;;;32.50;1.00;;;;;;5118465;27;20578;-59
2023/09/05 11:32:38;;;;;;;3.00;2.33;;;32.80;1.00;;;;;;5117689;28;20458;-60
2023/09/05 11:35:10;;;;;;;3.43;3.23;;;32.90;1.00;;;;;;5117886;28;20466;-60
2023/09/05 11:37:37;;;;;;;2.97;2.67;;;33.30;1.00;;;;;;5117744;28;20585;-59
2023/09/05 11:40:14;;;;;;;2.80;2.60;;;33.50;1.00;;;;;;5110771;28;20462;-59
2023/09/05 11:42:42;;;;;;;3.00;2.60;;;33.60;1.00;;;;;;5096611;28;20776;-60
2023/09/05 11:45:19;;;;;;;2.90;2.33;;;33.50;1.00;;;;;;5095359;28;20554;-59
2023/09/05 11:47:48;;;;;;;2.73;2.50;;;33.50;1.00;;;;;;5093421;28;20872;-58
2023/09/05 11:50:18;;;;;;;2.70;2.50;;;33.60;1.00;;;;;;5093205;28;20582;-55
2023/09/05 11:52:46;;;;;;;3.10;2.90;;;33.80;1.00;;;;;;5099733;28;20455;-58
2023/09/05 11:55:15;;;;;;;4.57;2.63;;;33.60;1.00;;;;;;5112500;28;20463;-61
2023/09/05 11:57:43;;;;;;;2.93;2.73;;;33.50;1.00;;;;;;5115287;28;20459;-58
2023/09/05 12:00:17;;;;;;;3.00;2.33;;;33.40;1.00;;;;;;5115387;28;20563;-60
2023/09/05 12:02:45;;;;;;;3.20;2.90;;;33.50;1.00;;;;;;5115868;28;20455;-58
2023/09/05 12:05:13;;;;;;;2.50;2.30;;;33.60;1.00;;;;;;5115135;28;20926;-59
2023/09/05 12:07:42;;;;;;;2.70;2.50;;;33.60;1.00;;;;;;5103882;28;20691;-61
2023/09/05 12:10:10;;;;;;;2.20;1.90;;;33.80;1.00;;;;;;5096125;28;20494;-60
2023/09/05 12:12:38;;;;;;;2.63;2.40;;;33.70;1.00;;;;;;5099377;28;20455;-59
2023/09/05 12:15:05;;;;;;;2.63;2.37;;;33.70;1.00;;;;;;5099583;28;20466;-58
2023/09/05 12:17:33;;;;;;;2.47;2.27;;;33.80;1.00;;;;;;5098245;28;20451;-59
2023/09/05 12:20:00;;;;;;;4.40;2.50;;;33.80;1.00;;;;;;5098202;28;20546;-60
2023/09/05 12:22:29;;;;;;;2.53;2.33;;;33.90;1.00;;;;;;5099647;28;20478;-59
2023/09/05 12:25:15;;;;;;;2.53;2.33;;;34.30;1.00;;;;;;5099552;28;20459;-59
2023/09/05 12:27:44;;;;;;;2.87;2.67;;;34.40;1.00;;;;;;5099771;28;20459;-60
2023/09/05 12:30:28;;;;;;;3.37;3.00;;;34.20;1.00;;;;;;5099982;28;20582;-60
2023/09/05 12:32:57;;;;;;;3.70;2.87;;;34.40;1.00;;;;;;5100769;28;20495;-60
2023/09/05 12:35:26;;;;;;;2.97;2.77;;;34.40;1.00;;;;;;5100837;28;20573;-60
2023/09/05 12:37:54;;;;;;;2.80;2.50;;;34.80;1.00;;;;;;5119746;28;20513;-60
2023/09/05 12:40:24;;;;;;;2.90;2.50;;;35.00;1.00;;;;;;5120614;28;20455;-60
2023/09/05 12:42:51;;;;;;;3.10;2.90;;;34.80;1.00;;;;;;5120517;28;20458;-61
2023/09/05 12:45:20;;;;;;;3.13;2.93;;;35.00;1.00;;;;;;5119825;28;20545;-60
2023/09/05 12:47:51;;;;;;;3.50;2.27;;;35.20;1.00;;;;;;5120053;28;20454;-60
2023/09/05 12:50:22;;;;;;;3.60;2.80;;;35.20;1.00;;;;;;5120042;28;20805;-60
2023/09/05 12:52:50;;;;;;;3.00;2.40;;;35.30;1.00;;;;;;5120971;28;20480;-60
2023/09/05 12:55:17;;;;;;;2.80;2.60;;;34.90;1.00;;;;;;5120716;28;20490;-60
2023/09/05 12:57:46;;;;;;;3.40;3.10;;;34.70;1.00;;;;;;5121087;28;20489;-60
2023/09/05 13:00:15;;;;;;;3.27;2.30;;;34.80;1.00;;;;;;5120213;28;20482;-60
2023/09/05 13:02:43;;;;;;;2.33;2.13;;;34.60;1.00;;;;;;5121460;27;20451;-60